createdAt,value
2022-09-14T00:01:26.473Z,0.20
2022-09-14T00:03:25.331Z,0.15
2022-09-14T00:05:23.659Z,0.40
2022-09-14T00:07:21.838Z,0.10
2022-09-14T00:09:22.814Z,0.20
2022-09-14T00:11:22.756Z,0.15
2022-09-14T00:13:22.370Z,0.00
2022-09-14T00:15:20.756Z,0.65
2022-09-14T00:17:18.917Z,0.10
2022-09-14T00:19:20.277Z,0.10
2022-09-14T00:21:18.675Z,0.00
2022-09-14T00:23:16.778Z,0.10
2022-09-14T00:25:15.093Z,0.35
2022-09-14T00:27:13.403Z,0.10
2022-09-14T00:29:13.180Z,0.30
2022-09-14T00:31:11.928Z,0.10
2022-09-14T00:33:10.501Z,0.35
2022-09-14T00:35:09.586Z,0.35
2022-09-14T00:37:07.708Z,0.20
2022-09-14T00:39:06.663Z,0.10
2022-09-14T00:41:06.474Z,0.17
2022-09-14T00:43:04.754Z,0.22
2022-09-14T00:45:08.598Z,0.00
2022-09-14T00:47:06.818Z,0.10
2022-09-14T00:49:08.321Z,0.30
2022-09-14T00:51:06.878Z,0.20
2022-09-14T00:53:05.227Z,0.20
2022-09-14T00:55:06.709Z,0.10
2022-09-14T00:57:05.161Z,0.15
2022-09-14T00:59:10.488Z,0.17
2022-09-14T01:01:10.609Z,0.00
2022-09-14T01:03:08.796Z,0.20
2022-09-14T01:05:08.422Z,0.22
2022-09-14T01:07:13.906Z,0.25
2022-09-14T01:09:20.294Z,0.00
2022-09-14T01:11:35.105Z,0.20
2022-09-14T01:13:40.950Z,0.20
2022-09-14T01:15:48.085Z,0.40
2022-09-14T01:17:54.992Z,0.08
2022-09-14T01:20:11.028Z,0.20
2022-09-14T01:22:15.875Z,0.28
2022-09-14T01:24:29.481Z,0.10
2022-09-14T01:27:00.251Z,0.10
2022-09-14T01:29:03.664Z,0.20
2022-09-14T01:31:06.699Z,0.00
2022-09-14T01:33:11.683Z,0.30
2022-09-14T01:35:16.249Z,0.20
2022-09-14T01:37:18.691Z,0.10
2022-09-14T01:39:19.335Z,0.20
2022-09-14T01:41:21.102Z,0.00
2022-09-14T01:43:23.985Z,0.22
2022-09-14T01:45:26.191Z,0.10
2022-09-14T01:47:29.075Z,0.52
2022-09-14T01:49:32.317Z,0.00
2022-09-14T01:51:36.583Z,0.57
2022-09-14T01:53:39.803Z,0.25
2022-09-14T01:55:43.736Z,0.15
2022-09-14T01:57:46.074Z,0.10
2022-09-14T01:59:46.179Z,0.08
2022-09-14T02:01:50.574Z,0.35
2022-09-14T02:03:53.390Z,0.13
2022-09-14T02:05:57.583Z,0.10
2022-09-14T02:07:56.608Z,0.10
2022-09-14T02:09:56.489Z,0.10
2022-09-14T02:12:00.670Z,0.17
2022-09-14T02:13:59.153Z,0.40
2022-09-14T02:15:57.667Z,0.10
2022-09-14T02:17:57.473Z,0.35
2022-09-14T02:19:58.320Z,0.17
2022-09-14T02:21:56.510Z,0.20
2022-09-14T02:23:55.405Z,0.00
2022-09-14T02:25:54.060Z,0.20
2022-09-14T02:27:52.819Z,0.38
2022-09-14T02:29:51.624Z,0.63
2022-09-14T02:32:02.173Z,0.30
2022-09-14T02:34:12.138Z,0.20
2022-09-14T02:36:18.005Z,0.05
2022-09-14T02:38:28.070Z,0.30
2022-09-14T02:40:34.022Z,0.55
2022-09-14T02:42:40.844Z,0.08
2022-09-14T02:44:48.849Z,0.10
2022-09-14T02:46:51.734Z,0.50
2022-09-14T02:48:56.152Z,0.10
2022-09-14T02:50:58.845Z,0.30
2022-09-14T02:53:03.199Z,0.35
2022-09-14T02:55:08.638Z,0.70
2022-09-14T02:57:07.006Z,0.08
2022-09-14T02:59:05.755Z,0.08
2022-09-14T03:01:05.174Z,0.22
2022-09-14T03:03:03.825Z,0.43
2022-09-14T03:05:01.976Z,0.15
2022-09-14T03:07:01.530Z,0.20
2022-09-14T03:08:59.844Z,0.50
2022-09-14T03:10:58.210Z,0.40
2022-09-14T03:12:56.451Z,0.03
2022-09-14T03:14:54.647Z,0.50
2022-09-14T03:16:52.932Z,0.85
2022-09-14T03:18:51.232Z,1.05
2022-09-14T03:20:49.406Z,0.40
2022-09-14T03:22:49.422Z,0.38
2022-09-14T03:24:47.577Z,0.68
2022-09-14T03:26:46.474Z,0.50
2022-09-14T03:28:45.315Z,0.40
2022-09-14T03:30:43.435Z,0.10
2022-09-14T03:32:41.708Z,0.82
2022-09-14T03:34:39.772Z,0.52
2022-09-14T03:36:38.045Z,0.20
2022-09-14T03:38:37.753Z,0.85
2022-09-14T03:40:36.019Z,0.22
2022-09-14T03:42:34.348Z,0.40
2022-09-14T03:44:32.518Z,0.25
2022-09-14T03:46:30.724Z,0.55
2022-09-14T03:48:30.805Z,0.85
2022-09-14T03:50:29.276Z,0.40
2022-09-14T03:52:27.530Z,0.30
2022-09-14T03:54:27.261Z,0.20
2022-09-14T03:56:25.552Z,0.10
2022-09-14T03:58:23.797Z,1.25
2022-09-14T04:00:22.254Z,1.10
2022-09-14T04:02:20.521Z,0.80
2022-09-14T04:04:18.635Z,0.47
2022-09-14T04:06:17.389Z,0.80
2022-09-14T04:08:15.543Z,0.70
2022-09-14T04:10:15.077Z,0.80
2022-09-14T04:12:13.340Z,0.30
2022-09-14T04:14:11.738Z,0.60
2022-09-14T04:16:10.688Z,0.00
2022-09-14T04:18:08.990Z,0.38
2022-09-14T04:20:08.205Z,0.52
2022-09-14T04:22:06.375Z,0.68
2022-09-14T04:24:15.328Z,0.50
2022-09-14T04:26:19.312Z,0.22
2022-09-14T04:28:20.395Z,0.50
2022-09-14T04:30:19.286Z,0.63
2022-09-14T04:32:18.333Z,0.50
2022-09-14T04:34:16.534Z,1.40
2022-09-14T04:36:16.883Z,1.48
2022-09-14T04:38:14.982Z,0.80
2022-09-14T04:40:13.197Z,0.30
2022-09-14T04:42:12.772Z,0.68
2022-09-14T04:44:10.997Z,0.22
2022-09-14T04:46:12.404Z,0.40
2022-09-14T04:48:10.583Z,0.40
2022-09-14T04:50:09.673Z,0.10
2022-09-14T04:52:07.953Z,0.25
2022-09-14T04:54:07.597Z,0.10
2022-09-14T04:56:07.895Z,1.08
2022-09-14T04:58:07.563Z,0.32
2022-09-14T05:00:06.828Z,0.15
2022-09-14T05:02:05.440Z,1.20
2022-09-14T05:04:04.401Z,0.20
2022-09-14T05:06:03.876Z,0.35
2022-09-14T05:08:02.109Z,0.30
2022-09-14T05:10:00.316Z,0.30
2022-09-14T05:11:58.630Z,0.63
2022-09-14T05:13:59.202Z,0.30
2022-09-14T05:16:05.486Z,0.83
2022-09-14T05:18:04.143Z,0.10
2022-09-14T05:20:07.422Z,0.10
2022-09-14T05:22:05.795Z,0.05
2022-09-14T05:24:05.928Z,0.40
2022-09-14T05:26:05.780Z,0.30
2022-09-14T05:28:04.896Z,1.37
2022-09-14T05:30:05.107Z,0.27
2022-09-14T05:32:03.747Z,0.10
2022-09-14T05:34:01.930Z,0.30
2022-09-14T05:36:02.604Z,0.43
2022-09-14T05:38:00.665Z,0.50
2022-09-14T05:39:59.008Z,0.60
2022-09-14T05:41:57.258Z,0.23
2022-09-14T05:43:55.408Z,0.20
2022-09-14T05:45:54.947Z,0.60
2022-09-14T05:47:53.293Z,0.20
2022-09-14T05:49:51.444Z,0.33
2022-09-14T05:51:49.918Z,0.20
2022-09-14T05:53:50.307Z,1.00
2022-09-14T05:55:48.383Z,0.20
2022-09-14T05:57:50.272Z,0.10
2022-09-14T05:59:48.632Z,0.43
2022-09-14T06:01:48.363Z,0.57
2022-09-14T06:03:47.942Z,0.57
2022-09-14T06:05:46.194Z,0.57
2022-09-14T06:07:44.927Z,0.40
2022-09-14T06:09:43.817Z,0.17
2022-09-14T06:11:41.922Z,0.53
2022-09-14T06:13:40.359Z,0.30
2022-09-14T06:15:38.622Z,0.53
2022-09-14T06:17:38.849Z,0.33
2022-09-14T06:19:36.902Z,0.10
2022-09-14T06:21:36.404Z,0.60
2022-09-14T06:23:35.039Z,0.33
2022-09-14T06:25:33.080Z,0.20
2022-09-14T06:27:31.364Z,0.47
2022-09-14T06:29:29.544Z,0.63
2022-09-14T06:31:28.395Z,0.17
2022-09-14T06:33:28.214Z,0.00
2022-09-14T06:35:26.455Z,0.60
2022-09-14T06:37:24.786Z,0.10
2022-09-14T06:39:24.948Z,0.30
2022-09-14T06:41:29.309Z,0.10
2022-09-14T06:45:25.742Z,0.10
2022-09-14T06:47:24.395Z,0.20
2022-09-14T06:49:24.053Z,0.13
2022-09-14T06:51:24.353Z,0.30
2022-09-14T06:53:22.524Z,0.40
2022-09-14T06:55:20.867Z,0.40
2022-09-14T06:57:19.286Z,0.20
2022-09-14T06:59:19.379Z,0.00
2022-09-14T07:01:19.986Z,0.50
2022-09-14T07:03:18.421Z,0.40
2022-09-14T07:05:22.192Z,0.10
2022-09-14T07:07:20.578Z,0.52
2022-09-14T07:09:20.470Z,0.00
2022-09-14T07:11:20.201Z,0.00
2022-09-14T07:13:18.379Z,0.20
2022-09-14T07:15:16.653Z,0.10
2022-09-14T07:17:16.902Z,0.43
2022-09-14T07:19:21.732Z,0.20
2022-09-14T07:21:21.319Z,0.17
2022-09-14T07:23:19.668Z,0.10
2022-09-14T07:25:21.058Z,0.10
2022-09-14T07:27:19.251Z,0.10
2022-09-14T07:29:19.234Z,0.10
2022-09-14T07:31:19.944Z,0.67
2022-09-14T07:33:18.183Z,0.10
2022-09-14T07:35:16.811Z,0.20
2022-09-14T07:37:16.495Z,0.37
2022-09-14T07:39:16.487Z,0.10
2022-09-14T07:41:14.677Z,0.20
2022-09-14T07:43:13.258Z,0.03
2022-09-14T07:45:11.803Z,0.13
2022-09-14T07:47:09.969Z,0.30
2022-09-14T07:49:09.435Z,0.20
2022-09-14T07:51:10.320Z,0.33
2022-09-14T07:53:09.967Z,0.30
2022-09-14T07:55:09.724Z,0.60
2022-09-14T07:57:07.834Z,0.10
2022-09-14T07:59:33.481Z,0.27
2022-09-14T08:01:29.219Z,0.20
2022-09-14T08:03:27.320Z,0.10
2022-09-14T08:05:26.161Z,0.10
2022-09-14T08:07:24.892Z,0.53
2022-09-14T08:09:24.513Z,0.23
2022-09-14T08:11:25.061Z,0.10
2022-09-14T08:13:23.265Z,0.20
2022-09-14T08:15:25.203Z,1.13
2022-09-14T08:17:26.514Z,0.20
2022-09-14T08:19:24.694Z,0.20
2022-09-14T08:21:23.099Z,0.30
2022-09-14T08:23:21.286Z,0.40
2022-09-14T08:25:20.844Z,0.83
2022-09-14T08:27:18.844Z,0.60
2022-09-14T08:29:19.584Z,0.20
2022-09-14T08:31:21.126Z,0.20
2022-09-14T08:33:19.610Z,1.07
2022-09-14T08:35:17.825Z,0.53
2022-09-14T08:37:18.809Z,0.53
2022-09-14T08:39:17.955Z,0.20
2022-09-14T08:41:28.778Z,1.20
2022-09-14T08:43:28.913Z,0.00
2022-09-14T08:45:30.657Z,0.30
2022-09-14T08:47:36.187Z,2.00
2022-09-14T08:49:46.242Z,1.70
2022-09-14T08:51:44.370Z,0.33
2022-09-14T08:53:46.325Z,0.70
2022-09-14T08:55:50.304Z,0.63
2022-09-14T08:57:52.369Z,0.20
2022-09-14T09:00:00.580Z,0.10
2022-09-14T09:02:09.766Z,0.20
2022-09-14T09:04:21.289Z,0.23
2022-09-14T09:06:25.570Z,0.37
2022-09-14T09:08:34.452Z,0.00
2022-09-14T09:10:35.117Z,0.20
2022-09-14T09:12:38.543Z,0.30
2022-09-14T09:14:55.811Z,0.38
2022-09-14T09:17:16.838Z,0.35
2022-09-14T09:19:24.751Z,0.32
2022-09-14T09:21:30.934Z,0.10
2022-09-14T09:23:31.181Z,0.20
2022-09-14T09:25:45.261Z,0.47
2022-09-14T09:27:43.425Z,0.00
2022-09-14T09:29:46.327Z,0.45
2022-09-14T09:31:47.650Z,0.13
2022-09-14T09:34:06.818Z,0.10
2022-09-14T09:36:11.727Z,0.20
2022-09-14T09:38:15.996Z,0.10
2022-09-14T09:40:19.286Z,0.13
2022-09-14T09:44:19.839Z,0.00
2022-09-14T09:46:24.271Z,0.10
2022-09-14T09:48:25.924Z,0.00
2022-09-14T09:50:26.432Z,0.50
2022-09-14T09:52:25.450Z,0.08
2022-09-14T09:54:34.621Z,0.00
2022-09-14T09:56:40.634Z,0.20
2022-09-14T09:58:39.998Z,0.10
2022-09-14T10:00:39.056Z,0.25
2022-09-14T10:02:44.013Z,0.00
2022-09-14T10:05:00.559Z,0.20
2022-09-14T10:07:24.694Z,0.13
2022-09-14T10:09:27.157Z,0.00
2022-09-14T10:11:38.282Z,0.23
2022-09-14T10:13:41.055Z,0.35
2022-09-14T10:15:43.450Z,0.00
2022-09-14T10:17:55.591Z,0.43
2022-09-14T10:19:56.136Z,0.52
2022-09-14T10:22:07.144Z,0.00
2022-09-14T10:24:17.303Z,0.00
2022-09-14T10:26:24.375Z,0.00
2022-09-14T10:28:25.975Z,0.00
2022-09-14T10:30:29.923Z,0.10
2022-09-14T10:32:30.206Z,0.00
2022-09-14T10:34:30.616Z,0.00
2022-09-14T10:36:31.727Z,0.00
2022-09-14T10:38:37.415Z,0.20
2022-09-14T10:40:38.787Z,0.45
2022-09-14T10:42:41.926Z,0.00
2022-09-14T10:44:53.794Z,0.00
2022-09-14T10:47:09.410Z,0.03
2022-09-14T10:49:37.934Z,0.00
2022-09-14T10:51:47.141Z,0.00
2022-09-14T10:53:55.471Z,0.00
2022-09-14T10:56:01.853Z,0.00
2022-09-14T10:58:24.288Z,0.00
2022-09-14T11:00:23.629Z,0.17
2022-09-14T11:02:53.706Z,0.08
2022-09-14T11:05:08.003Z,0.00
2022-09-14T11:07:12.787Z,0.00
2022-09-14T11:09:23.660Z,0.00
2022-09-14T11:11:41.805Z,0.00
2022-09-14T11:13:54.074Z,0.00
2022-09-14T11:16:02.887Z,0.00
2022-09-14T11:18:15.740Z,0.00
2022-09-14T11:20:26.701Z,0.00
2022-09-14T11:22:36.647Z,0.00
2022-09-14T11:24:40.103Z,0.00
2022-09-14T11:26:43.785Z,0.32
2022-09-14T11:28:46.118Z,0.30
2022-09-14T11:30:51.511Z,0.05
2022-09-14T11:32:54.253Z,0.00
2022-09-14T11:34:58.191Z,0.00
2022-09-14T11:37:01.830Z,0.10
2022-09-14T11:41:18.548Z,0.00
2022-09-14T11:43:23.189Z,0.00
2022-09-14T11:45:25.919Z,0.00
2022-09-14T11:47:25.016Z,0.10
2022-09-14T11:49:35.497Z,0.20
2022-09-14T11:51:41.786Z,0.05
2022-09-14T11:53:48.121Z,0.45
2022-09-14T11:55:49.514Z,0.10
2022-09-14T11:57:49.635Z,0.00
2022-09-14T11:59:51.502Z,0.00
2022-09-14T12:01:49.802Z,0.00
2022-09-14T12:04:09.406Z,0.00
2022-09-14T12:06:41.089Z,0.52
2022-09-14T12:08:41.759Z,0.00
2022-09-14T12:11:05.674Z,0.00
2022-09-14T12:13:20.985Z,0.52
2022-09-14T12:16:04.012Z,0.00
2022-09-14T12:18:23.475Z,0.45
2022-09-14T12:20:41.981Z,0.32
2022-09-14T12:22:41.753Z,0.00
2022-09-14T12:24:41.262Z,0.00
2022-09-14T12:26:40.548Z,0.00
2022-09-14T12:28:49.519Z,0.65
2022-09-14T12:31:07.993Z,0.00
2022-09-14T12:34:06.094Z,0.00
2022-09-14T12:36:05.748Z,0.00
2022-09-14T12:38:36.980Z,0.00
2022-09-14T12:40:38.862Z,0.00
2022-09-14T12:42:36.995Z,0.00
2022-09-14T12:44:38.386Z,0.00
2022-09-14T12:46:39.837Z,0.00
2022-09-14T12:48:58.943Z,0.00
2022-09-14T12:50:57.453Z,0.00
2022-09-14T12:53:27.197Z,0.00
2022-09-14T12:55:50.854Z,0.00
2022-09-14T12:57:57.588Z,0.00
2022-09-14T13:00:04.244Z,0.00
2022-09-14T13:02:20.864Z,0.10
2022-09-14T13:04:26.081Z,0.00
2022-09-14T13:06:28.167Z,0.00
2022-09-14T13:08:26.529Z,0.00
2022-09-14T13:10:28.901Z,0.00
2022-09-14T13:12:37.681Z,0.05
2022-09-14T13:14:38.889Z,0.00
2022-09-14T13:16:45.624Z,0.00
2022-09-14T13:18:46.387Z,0.80
2022-09-14T13:20:52.109Z,0.00
2022-09-14T13:22:50.843Z,0.00
2022-09-14T13:24:54.723Z,0.00
2022-09-14T13:27:13.148Z,0.00
2022-09-14T13:29:15.905Z,0.00
2022-09-14T13:31:22.454Z,0.00
2022-09-14T13:33:21.344Z,0.15
2022-09-14T13:35:26.511Z,0.00
2022-09-14T13:37:27.481Z,0.00
2022-09-14T13:39:29.361Z,0.00
2022-09-14T13:41:27.719Z,0.00
2022-09-14T13:43:28.405Z,0.00
2022-09-14T13:45:28.512Z,0.00
2022-09-14T13:47:29.196Z,0.00
2022-09-14T13:49:28.021Z,0.00
2022-09-14T13:51:31.894Z,0.20
2022-09-14T13:55:45.635Z,0.00
2022-09-14T13:58:06.388Z,0.10
2022-09-14T14:00:23.549Z,0.00
2022-09-14T14:02:23.234Z,0.00
2022-09-14T14:04:37.266Z,0.00
2022-09-14T14:08:38.046Z,0.00
2022-09-14T14:10:40.433Z,0.47
2022-09-14T14:12:40.565Z,0.00
2022-09-14T14:14:39.163Z,0.00
2022-09-14T14:16:40.566Z,0.00
2022-09-14T14:18:43.810Z,0.60
2022-09-14T14:20:42.372Z,0.00
2022-09-14T14:22:41.572Z,0.10
2022-09-14T14:25:02.084Z,0.00
2022-09-14T14:26:59.180Z,0.00
2022-09-14T14:29:09.674Z,0.00
2022-09-14T14:31:13.650Z,0.00
2022-09-14T14:33:13.603Z,0.20
2022-09-14T14:35:20.185Z,0.00
2022-09-14T14:37:18.502Z,0.20
2022-09-14T14:39:17.523Z,0.00
2022-09-14T14:41:17.641Z,0.00
2022-09-14T14:43:22.138Z,0.00
2022-09-14T14:45:22.293Z,0.00
2022-09-14T14:47:23.350Z,0.10
2022-09-14T14:49:21.959Z,0.00
2022-09-14T14:51:21.997Z,0.00
2022-09-14T14:53:20.129Z,0.67
2022-09-14T14:55:19.910Z,0.67
2022-09-14T14:57:18.073Z,0.20
2022-09-14T14:59:29.453Z,0.00
2022-09-14T15:01:27.787Z,0.00
2022-09-14T15:03:26.357Z,0.00
2022-09-14T15:05:24.929Z,0.00
2022-09-14T15:07:24.561Z,0.00
2022-09-14T15:09:24.653Z,0.10
2022-09-14T15:11:23.512Z,0.00
2022-09-14T15:13:25.332Z,0.00
2022-09-14T15:15:26.042Z,0.13
2022-09-14T15:17:24.190Z,0.30
2022-09-14T15:19:22.367Z,0.90
2022-09-14T15:21:20.614Z,0.10
2022-09-14T15:23:20.214Z,0.00
2022-09-14T15:25:20.601Z,0.00
2022-09-14T15:27:18.755Z,0.10
2022-09-14T15:29:18.289Z,0.00
2022-09-14T15:31:17.009Z,0.00
2022-09-14T15:33:15.430Z,0.00
2022-09-14T15:35:15.643Z,0.10
2022-09-14T15:37:14.498Z,0.00
2022-09-14T15:39:15.939Z,0.00
2022-09-14T15:41:16.148Z,0.23
2022-09-14T15:43:14.319Z,0.00
2022-09-14T15:45:15.315Z,0.50
2022-09-14T15:47:15.696Z,0.00
2022-09-14T15:49:21.255Z,0.27
2022-09-14T15:51:22.088Z,0.00
2022-09-14T15:53:20.432Z,0.00
2022-09-14T15:55:23.183Z,0.10
2022-09-14T15:57:21.782Z,0.00
2022-09-14T15:59:23.986Z,0.00
2022-09-14T16:01:22.393Z,0.00
2022-09-14T16:03:20.641Z,0.10
2022-09-14T16:05:20.230Z,0.33
2022-09-14T16:07:18.668Z,0.00
2022-09-14T16:09:18.481Z,0.07
2022-09-14T16:11:17.918Z,0.00
2022-09-14T16:13:16.229Z,0.00
2022-09-14T16:15:14.414Z,0.00
2022-09-14T16:17:12.695Z,0.00
2022-09-14T16:19:13.911Z,0.20
2022-09-14T16:21:14.206Z,0.10
2022-09-14T16:23:13.022Z,0.80
2022-09-14T16:25:16.025Z,0.47
2022-09-14T16:27:21.294Z,0.27
2022-09-14T16:29:43.057Z,0.03
2022-09-14T16:31:45.126Z,0.10
2022-09-14T16:33:53.221Z,0.00
2022-09-14T16:36:03.876Z,0.07
2022-09-14T16:38:04.582Z,0.03
2022-09-14T16:40:05.846Z,0.00
2022-09-14T16:42:12.409Z,0.30
2022-09-14T16:44:19.045Z,0.00
2022-09-14T16:46:18.697Z,0.00
2022-09-14T16:48:16.847Z,0.00
2022-09-14T16:50:15.548Z,0.37
2022-09-14T16:52:17.269Z,0.00
2022-09-14T16:54:23.382Z,0.10
2022-09-14T16:56:23.420Z,0.17
2022-09-14T16:58:21.721Z,0.00
2022-09-14T17:00:24.350Z,0.00
2022-09-14T17:02:31.377Z,0.00
2022-09-14T17:04:32.488Z,0.00
2022-09-14T17:06:34.364Z,0.10
2022-09-14T17:08:39.623Z,0.23
2022-09-14T17:10:40.333Z,0.00
2022-09-14T17:12:41.036Z,0.20
2022-09-14T17:14:39.437Z,0.13
2022-09-14T17:16:39.158Z,0.30
2022-09-14T17:18:41.057Z,0.60
2022-09-14T17:20:39.712Z,0.30
2022-09-14T17:22:38.126Z,0.10
2022-09-14T17:24:36.594Z,0.10
2022-09-14T17:26:38.575Z,0.57
2022-09-14T17:28:37.803Z,0.03
2022-09-14T17:30:36.101Z,0.10
2022-09-14T17:32:36.133Z,0.53
2022-09-14T17:34:37.186Z,0.20
2022-09-14T17:36:38.351Z,0.00
2022-09-14T17:38:44.608Z,0.40
2022-09-14T17:40:42.990Z,0.03
2022-09-14T17:42:44.164Z,0.20
2022-09-14T17:44:43.723Z,0.57
2022-09-14T17:46:51.203Z,0.10
2022-09-14T17:48:53.142Z,0.60
2022-09-14T17:50:52.508Z,0.10
2022-09-14T17:52:51.221Z,0.13
2022-09-14T17:54:52.796Z,0.00
2022-09-14T17:56:51.346Z,0.20
2022-09-14T17:58:51.092Z,0.10
2022-09-14T18:00:50.463Z,0.13
2022-09-14T18:02:52.203Z,0.50
2022-09-14T18:04:52.148Z,0.53
2022-09-14T18:06:50.576Z,0.10
2022-09-14T18:08:51.571Z,0.50
2022-09-14T18:10:49.797Z,0.23
2022-09-14T18:12:48.249Z,0.37
2022-09-14T18:14:46.456Z,0.60
2022-09-14T18:16:45.568Z,0.47
2022-09-14T18:18:44.139Z,0.47
2022-09-14T18:20:45.789Z,0.57
2022-09-14T18:22:44.049Z,0.00
2022-09-14T18:24:42.351Z,0.33
2022-09-14T18:26:41.160Z,0.00
2022-09-14T18:28:39.496Z,19.87
2022-09-14T18:30:42.935Z,19.83
2022-09-14T18:32:41.851Z,31.80
2022-09-14T18:34:40.187Z,7.27
2022-09-14T18:36:40.329Z,10.50
2022-09-14T18:38:38.765Z,4.57
2022-09-14T18:40:38.682Z,0.50
2022-09-14T18:42:37.140Z,0.27
2022-09-14T18:44:35.437Z,0.60
2022-09-14T18:46:34.233Z,0.23
2022-09-14T18:48:32.767Z,0.20
2022-09-14T18:50:31.345Z,0.53
2022-09-14T18:52:30.943Z,0.20
2022-09-14T18:54:29.234Z,0.50
2022-09-14T18:56:28.085Z,0.13
2022-09-14T18:58:27.059Z,0.30
2022-09-14T19:00:25.526Z,1.13
2022-09-14T19:02:23.734Z,0.87
2022-09-14T19:04:22.116Z,0.03
2022-09-14T19:06:21.032Z,0.20
2022-09-14T19:08:20.662Z,0.43
2022-09-14T19:10:20.186Z,0.10
2022-09-14T19:12:18.530Z,1.60
2022-09-14T19:14:20.838Z,0.60
2022-09-14T19:16:20.311Z,0.83
2022-09-14T19:18:18.727Z,0.00
2022-09-14T19:20:18.196Z,0.20
2022-09-14T19:22:16.342Z,0.33
2022-09-14T19:24:17.827Z,0.47
2022-09-14T19:26:20.919Z,0.90
2022-09-14T19:28:19.523Z,0.10
2022-09-14T19:30:18.394Z,0.00
2022-09-14T19:32:16.807Z,0.10
2022-09-14T19:34:15.971Z,0.47
2022-09-14T19:36:17.195Z,0.27
2022-09-14T19:38:17.297Z,0.20
2022-09-14T19:40:17.386Z,0.97
2022-09-14T19:42:15.963Z,0.23
2022-09-14T19:44:17.345Z,0.20
2022-09-14T19:46:17.316Z,0.10
2022-09-14T19:48:15.537Z,0.00
2022-09-14T19:50:13.778Z,0.77
2022-09-14T19:52:11.944Z,0.60
2022-09-14T19:54:11.094Z,1.23
2022-09-14T19:56:14.388Z,0.30
2022-09-14T19:58:12.883Z,0.00
2022-09-14T20:00:17.515Z,0.00
2022-09-14T20:02:16.328Z,0.20
2022-09-14T20:04:15.721Z,0.10
2022-09-14T20:06:19.711Z,0.20
2022-09-14T20:08:17.859Z,0.10
2022-09-14T20:10:18.241Z,0.20
2022-09-14T20:12:17.894Z,0.00
2022-09-14T20:14:18.673Z,0.00
2022-09-14T20:16:19.013Z,0.10
2022-09-14T20:18:17.529Z,0.20
2022-09-14T20:20:17.392Z,0.00
2022-09-14T20:22:16.951Z,0.10
2022-09-14T20:24:18.227Z,0.47
2022-09-14T20:26:17.739Z,0.10
2022-09-14T20:28:17.550Z,0.00
2022-09-14T20:30:15.804Z,0.10
2022-09-14T20:32:16.318Z,0.27
2022-09-14T20:34:20.472Z,0.20
2022-09-14T20:36:20.543Z,0.10
2022-09-14T20:38:18.822Z,0.00
2022-09-14T20:40:17.410Z,0.00
2022-09-14T20:42:15.675Z,0.17
2022-09-14T20:44:15.977Z,0.53
2022-09-14T20:46:17.139Z,0.33
2022-09-14T20:48:15.459Z,0.53
2022-09-14T20:50:13.728Z,0.30
2022-09-14T20:52:11.832Z,0.70
2022-09-14T20:54:12.698Z,0.37
2022-09-14T20:56:13.443Z,0.20
2022-09-14T20:58:11.561Z,0.00
2022-09-14T21:00:13.563Z,0.00
2022-09-14T21:02:13.917Z,0.07
2022-09-14T21:04:13.990Z,0.10
2022-09-14T21:06:16.713Z,0.10
2022-09-14T21:08:14.936Z,0.20
2022-09-14T21:10:13.151Z,1.63
2022-09-14T21:12:14.251Z,0.40
2022-09-14T21:14:12.728Z,0.10
2022-09-14T21:16:15.661Z,0.00
2022-09-14T21:18:17.561Z,0.30
2022-09-14T21:20:18.209Z,0.10
2022-09-14T21:22:17.105Z,0.00
2022-09-14T21:24:16.596Z,0.00
2022-09-14T21:26:14.877Z,0.30
2022-09-14T21:28:13.641Z,0.40
2022-09-14T21:30:12.467Z,0.10
2022-09-14T21:32:12.153Z,1.17
2022-09-14T21:34:12.741Z,0.43
2022-09-14T21:36:14.346Z,0.10
2022-09-14T21:38:13.004Z,0.10
2022-09-14T21:40:12.043Z,0.10
2022-09-14T21:42:10.339Z,0.33
2022-09-14T21:44:08.655Z,0.10
2022-09-14T21:46:07.848Z,0.00
2022-09-14T21:48:07.849Z,0.30
2022-09-14T21:50:09.505Z,0.33
2022-09-14T21:52:07.793Z,0.10
2022-09-14T21:54:08.226Z,0.10
2022-09-14T21:56:07.556Z,0.20
2022-09-14T21:58:05.896Z,0.37
2022-09-14T22:00:06.197Z,0.50
2022-09-14T22:02:04.896Z,0.10
2022-09-14T22:04:06.621Z,0.20
2022-09-14T22:06:06.597Z,0.00
2022-09-14T22:08:04.848Z,0.30
2022-09-14T22:10:03.830Z,0.20
2022-09-14T22:12:02.271Z,0.20
2022-09-14T22:14:02.450Z,0.53
2022-09-14T22:16:01.230Z,0.33
2022-09-14T22:18:02.099Z,0.80
2022-09-14T22:20:02.433Z,0.00
2022-09-14T22:22:00.975Z,0.00
2022-09-14T22:24:03.204Z,0.10
2022-09-14T22:26:06.087Z,0.23
2022-09-14T22:28:04.547Z,0.00
2022-09-14T22:30:04.750Z,0.03
2022-09-14T22:32:05.646Z,0.00
2022-09-14T22:34:03.832Z,0.10
2022-09-14T22:36:05.277Z,0.40
2022-09-14T22:38:03.515Z,0.40
2022-09-14T22:40:01.681Z,0.00
2022-09-14T22:41:59.851Z,0.00
2022-09-14T22:43:58.296Z,0.10
2022-09-14T22:45:56.968Z,0.10
2022-09-14T22:47:55.211Z,0.33
2022-09-14T22:49:53.762Z,0.00
2022-09-14T22:51:53.389Z,0.43
2022-09-14T22:53:52.058Z,1.43
2022-09-14T22:55:50.896Z,0.10
2022-09-14T22:57:49.198Z,0.10
2022-09-14T22:59:47.394Z,0.00
2022-09-14T23:01:45.867Z,0.00
2022-09-14T23:03:44.530Z,0.03
2022-09-14T23:05:50.759Z,0.37
2022-09-14T23:07:50.269Z,0.10
2022-09-14T23:09:48.714Z,0.80
2022-09-14T23:11:47.315Z,0.63
2022-09-14T23:13:45.444Z,0.80
2022-09-14T23:15:43.917Z,0.17
2022-09-14T23:17:42.227Z,0.57
2022-09-14T23:19:40.366Z,0.30
2022-09-14T23:21:38.598Z,0.30
2022-09-14T23:23:39.309Z,0.10
2022-09-14T23:25:38.873Z,0.80
2022-09-14T23:27:36.919Z,0.17
2022-09-14T23:29:35.209Z,0.43
2022-09-14T23:31:33.865Z,0.30
2022-09-14T23:33:32.309Z,0.10
2022-09-14T23:35:32.865Z,0.07
2022-09-14T23:37:34.146Z,0.32
2022-09-14T23:39:33.595Z,0.30
2022-09-14T23:41:32.290Z,0.37
2022-09-14T23:43:30.443Z,0.20
2022-09-14T23:45:28.597Z,0.53
2022-09-14T23:47:27.111Z,0.10
2022-09-14T23:49:25.206Z,1.43
2022-09-14T23:51:24.580Z,0.37
2022-09-14T23:53:22.820Z,0.17
2022-09-14T23:55:22.557Z,0.00
2022-09-14T23:57:20.731Z,0.63
2022-09-14T23:59:19.030Z,0.10
